ADDS METAR Data INFO
IDs: Format: Raw Decoded Include TAF

Data at: 1603 UTC 12 Dec 2017

KIZG 121554Z AUTO 01005KT 1/4SM +SN FZFG VV008 M08/M09 A2977 RMK AO2 PRESFR SLP090 P0005 T10781089
KIZG 121550Z AUTO 02007KT 1/4SM +SN FZFG VV008 M08/M09 A2978 RMK AO2 P0004
KIZG 121541Z AUTO 01006KT 1/2SM SN FZFG VV009 M08/M09 A2979 RMK AO2 P0004 T10781089
KIZG 121454Z AUTO 01004KT 3/4SM -SN BR VV013 M08/M09 A2983 RMK AO2 SLP108 P0004 60010 T10781089 58018
KIZG 121420Z AUTO VRB03KT 3/4SM -SN BR VV011 M08/M09 A2985 RMK AO2 P0002 T10781089
KIZG 121354Z AUTO 36006KT 1SM -SN BR VV012 M08/M09 A2985 RMK AO2 SLP117 P0005 T10831089
KIZG 121332Z AUTO 03005KT 1SM -SN BR VV010 M08/M09 A2986 RMK AO2 P0004 T10831094
KIZG 121315Z AUTO 36005KT 3/4SM -SN BR VV009 M08/M09 A2987 RMK AO2 P0002 T10831089
KIZG 121301Z AUTO 02004KT 3/4SM -SN BR VV011 M08/M09 A2988 RMK AO2 P0001 T10831089
KIZG 121254Z AUTO 01005KT 1SM -SN BR BKN013 OVC024 M08/M09 A2988 RMK AO2 SLP126 P0001 T10831094
KIZG 121249Z AUTO 03005KT 1SM -SN BR BKN015 OVC023 M08/M09 A2988 RMK AO2 P0001
KIZG 121224Z AUTO 36006KT 1 3/4SM -SN BR OVC022 M08/M09 A2990 RMK AO2 P0000 T10831094
KIZG 121213Z AUTO 01006KT 2SM -SN BR OVC022 M08/M09 A2991 RMK AO2 P0000 T10781094
KIZG 121154Z AUTO 36007KT 4SM -SN BR OVC021 M08/M09 A2992 RMK AO2 SLP140 P0001 60004 70004 T10781094 11050 21078 58017
KIZG 121117Z AUTO 04006KT 4SM -SN BR OVC024 M08/M09 A2993 RMK AO2 P0000 T10781089
KIZG 121107Z AUTO 03004KT 2 1/2SM -SN BR OVC024 M08/M09 A2993 RMK AO2 P0000 T10781089
KIZG 121054Z AUTO 03004KT 1 3/4SM -SN BR FEW014 OVC025 M08/M09 A2994 RMK AO2 SLP146 P0002 T10781089
KIZG 121044Z AUTO 36005KT 1 1/4SM -SN BR SCT015 OVC025 M08/M09 A2995 RMK AO2 P0002 T10781089
KIZG 121029Z AUTO 03004KT 1 3/4SM -SN BR OVC025 M08/M09 A2995 RMK AO2 P0001 T10781089
KIZG 121019Z AUTO 02006KT 2SM -SN BR OVC025 M08/M09 A2995 RMK AO2 P0001 T10781089
KIZG 120954Z AUTO 02006KT 1 1/2SM -SN BR OVC026 M07/M08 A2995 RMK AO2 SLP150 P0001 T10721083
KIZG 120937Z AUTO 03006KT 2SM -SN BR SCT010 SCT015 OVC026 M07/M09 A2996 RMK AO2 P0001 T10721089
KIZG 120854Z AUTO 00000KT 2SM -SN BR BKN011 BKN016 OVC026 M07/M08 A2997 RMK AO2 SLP156 P0000 60000 T10671078 58007
KIZG 120848Z AUTO 11004KT 1 3/4SM -SN BR BKN014 OVC026 M07/M08 A2997 RMK AO2 P0000
KIZG 120822Z AUTO 10005KT 2 1/2SM -SN BR BKN027 OVC033 M07/M08 A2998 RMK AO2 P0000 T10671078
KIZG 120754Z AUTO 11007KT 1 3/4SM -SN BR OVC027 M06/M08 A2998 RMK AO2 SNB15 SLP160 P0000 T10611083
KIZG 120751Z AUTO 11009KT 2SM -SN BR OVC027 M06/M08 A2998 RMK AO2 SNB15 P0000
KIZG 120654Z AUTO 09006KT 10SM OVC050 M05/M09 A2999 RMK AO2 SLP163 T10501089
KIZG 120554Z AUTO 00000KT 10SM FEW055 OVC095 M06/M08 A3000 RMK AO2 SLP166 T10611083 11050 21072 57002
KIZG 120454Z AUTO 00000KT 10SM FEW050 OVC110 M07/M08 A3000 RMK AO2 SLP166 T10721083 400281072
KIZG 120354Z AUTO 00000KT 10SM CLR M06/M08 A3000 RMK AO2 SLP167 T10611078
KIZG 120254Z AUTO 00000KT 10SM SCT110 M06/M08 A3001 RMK AO2 SLP167 T10611078 55003
KIZG 120154Z AUTO 00000KT 10SM FEW120 M06/M08 A2999 RMK AO2 SLP163 T10561083
KIZG 120054Z AUTO 00000KT 10SM CLR M06/M08 A2999 RMK AO2 SLP162 T10561083
KIZG 112354Z AUTO 00000KT 10SM CLR M06/M09 A3001 RMK AO2 SLP172 T10561094 10017 21061 51023
KIZG 112254Z AUTO 00000KT 10SM CLR M04/M10 A3000 RMK AO2 SLP168 T10391100
KIZG 112154Z AUTO 32006KT 10SM CLR M02/M09 A2998 RMK AO2 SLP157 T10221089
KIZG 112054Z AUTO 34005KT 10SM FEW060 M01/M09 A2995 RMK AO2 SLP147 T10111089 53020
KIZG 111954Z AUTO 29006KT 10SM FEW055 01/M09 A2992 RMK AO2 SLP136 T00061089
KIZG 111854Z AUTO 00000KT 10SM FEW044 BKN065 01/M05 A2990 RMK AO2 SLP130 T00061050
KIZG 111754Z AUTO VRB06KT 10SM FEW048 BKN065 02/M06 A2989 RMK AO2 SLP126 T00171061 10028 21022 55003
KIZG 111654Z AUTO 23009G15KT 10SM FEW041 02/M06 A2989 RMK AO2 SLP126 T00221061
KIZG 111554Z AUTO 24008KT 10SM CLR 02/M05 A2989 RMK AO2 SLP127 T00221050
KIZG 111454Z AUTO VRB06KT 10SM CLR 01/M05 A2990 RMK AO2 SLP130 T00111050 51009
KIZG 111354Z AUTO 22004KT 10SM BKN044 OVC085 M01/M05 A2989 RMK AO2 SLP130 T10061050
KIZG 111254Z AUTO 18003KT 10SM FEW043 OVC085 M02/M04 A2988 RMK AO2 SLP125 T10171044
KIZG 111154Z AUTO 17003KT 10SM OVC085 M02/M05 A2987 RMK AO2 SLP121 T10171050 11006 21033 53005
KIZG 111054Z AUTO 14003KT 10SM BKN085 M03/M05 A2986 RMK AO2 SLP119 T10281050
KIZG 110954Z AUTO VRB03KT 10SM BKN044 OVC090 M02/M05 A2985 RMK AO2 SLP115 T10171050
KIZG 110854Z AUTO 00000KT 10SM BKN044 M03/M04 A2985 RMK AO2 SLP116 T10281044 58002
KIZG 110754Z AUTO VRB04KT 10SM OVC044 M01/M05 A2986 RMK AO2 SLP116 T10111050
KIZG 110654Z AUTO 00000KT 10SM OVC046 M02/M06 A2987 RMK AO2 SLP119 T10171056
KIZG 110554Z AUTO 00000KT 10SM OVC045 M02/M06 A2986 RMK AO2 SLP117 T10221061 11011 21061 51003
KIZG 110454Z AUTO 00000KT 10SM OVC048 M02/M06 A2986 RMK AO2 SLP116 T10221061 400281072